sensor_id;sensor_type;location;lat;lon;timestamp;P1;durP1;ratioP1;P2;durP2;ratioP2
43952;SDS011;29608;49.400;11.010;2022-09-25T00:01:24;2.85;;;2.22;;
43952;SDS011;29608;49.400;11.010;2022-09-25T00:03:52;2.40;;;2.20;;
43952;SDS011;29608;49.400;11.010;2022-09-25T00:06:20;2.05;;;1.90;;
43952;SDS011;29608;49.400;11.010;2022-09-25T00:08:51;10.27;;;1.85;;
43952;SDS011;29608;49.400;11.010;2022-09-25T00:11:21;2.30;;;2.00;;
43952;SDS011;29608;49.400;11.010;2022-09-25T00:13:52;2.72;;;2.33;;
43952;SDS011;29608;49.400;11.010;2022-09-25T00:16:24;1.80;;;1.70;;
43952;SDS011;29608;49.400;11.010;2022-09-25T00:18:55;2.17;;;1.98;;
43952;SDS011;29608;49.400;11.010;2022-09-25T00:21:42;2.88;;;2.17;;
43952;SDS011;29608;49.400;11.010;2022-09-25T00:24:10;2.47;;;1.98;;
43952;SDS011;29608;49.400;11.010;2022-09-25T00:26:39;2.28;;;2.08;;
43952;SDS011;29608;49.400;11.010;2022-09-25T00:29:13;3.43;;;2.20;;
43952;SDS011;29608;49.400;11.010;2022-09-25T00:31:44;3.28;;;1.75;;
43952;SDS011;29608;49.400;11.010;2022-09-25T00:34:12;1.75;;;1.65;;
43952;SDS011;29608;49.400;11.010;2022-09-25T00:36:40;2.30;;;2.10;;
43952;SDS011;29608;49.400;11.010;2022-09-25T00:39:08;2.83;;;2.42;;
43952;SDS011;29608;49.400;11.010;2022-09-25T00:41:36;2.22;;;1.85;;
43952;SDS011;29608;49.400;11.010;2022-09-25T00:44:39;3.10;;;1.90;;
43952;SDS011;29608;49.400;11.010;2022-09-25T00:47:27;1.90;;;1.80;;
43952;SDS011;29608;49.400;11.010;2022-09-25T00:50:22;2.13;;;1.75;;
43952;SDS011;29608;49.400;11.010;2022-09-25T00:53:01;2.42;;;1.42;;
43952;SDS011;29608;49.400;11.010;2022-09-25T00:55:33;1.90;;;1.80;;
43952;SDS011;29608;49.400;11.010;2022-09-25T00:58:04;2.10;;;1.95;;
43952;SDS011;29608;49.400;11.010;2022-09-25T01:00:35;2.08;;;1.88;;
43952;SDS011;29608;49.400;11.010;2022-09-25T01:03:03;3.17;;;1.73;;
43952;SDS011;29608;49.400;11.010;2022-09-25T01:05:35;4.07;;;2.25;;
43952;SDS011;29608;49.400;11.010;2022-09-25T01:08:08;2.10;;;1.90;;
43952;SDS011;29608;49.400;11.010;2022-09-25T01:10:41;1.88;;;1.77;;
43952;SDS011;29608;49.400;11.010;2022-09-25T01:13:09;4.10;;;1.67;;
43952;SDS011;29608;49.400;11.010;2022-09-25T01:15:42;2.50;;;1.83;;
43952;SDS011;29608;49.400;11.010;2022-09-25T01:18:21;3.47;;;2.03;;
43952;SDS011;29608;49.400;11.010;2022-09-25T01:21:18;2.08;;;1.88;;
43952;SDS011;29608;49.400;11.010;2022-09-25T01:24:03;1.55;;;1.40;;
43952;SDS011;29608;49.400;11.010;2022-09-25T01:27:05;1.65;;;1.55;;
43952;SDS011;29608;49.400;11.010;2022-09-25T01:30:01;2.05;;;1.60;;
43952;SDS011;29608;49.400;11.010;2022-09-25T01:32:35;4.47;;;2.78;;
43952;SDS011;29608;49.400;11.010;2022-09-25T01:35:17;1.90;;;1.80;;
43952;SDS011;29608;49.400;11.010;2022-09-25T01:38:05;1.70;;;1.60;;
43952;SDS011;29608;49.400;11.010;2022-09-25T01:40:47;2.53;;;1.85;;
43952;SDS011;29608;49.400;11.010;2022-09-25T01:43:24;1.80;;;1.70;;
43952;SDS011;29608;49.400;11.010;2022-09-25T01:46:03;1.77;;;1.67;;
43952;SDS011;29608;49.400;11.010;2022-09-25T01:48:38;1.88;;;1.77;;
43952;SDS011;29608;49.400;11.010;2022-09-25T01:51:12;2.28;;;2.08;;
43952;SDS011;29608;49.400;11.010;2022-09-25T01:53:47;2.00;;;1.73;;
43952;SDS011;29608;49.400;11.010;2022-09-25T01:56:19;2.38;;;2.03;;
43952;SDS011;29608;49.400;11.010;2022-09-25T01:58:58;1.70;;;1.55;;
43952;SDS011;29608;49.400;11.010;2022-09-25T02:01:34;5.32;;;1.70;;
43952;SDS011;29608;49.400;11.010;2022-09-25T02:04:09;1.90;;;1.80;;
43952;SDS011;29608;49.400;11.010;2022-09-25T02:06:44;1.77;;;1.48;;
43952;SDS011;29608;49.400;11.010;2022-09-25T02:09:16;4.43;;;2.35;;
43952;SDS011;29608;49.400;11.010;2022-09-25T02:11:53;3.17;;;2.25;;
43952;SDS011;29608;49.400;11.010;2022-09-25T02:14:26;1.85;;;1.75;;
43952;SDS011;29608;49.400;11.010;2022-09-25T02:17:03;2.00;;;1.80;;
43952;SDS011;29608;49.400;11.010;2022-09-25T02:19:38;2.10;;;2.00;;
43952;SDS011;29608;49.400;11.010;2022-09-25T02:22:23;1.67;;;1.58;;
43952;SDS011;29608;49.400;11.010;2022-09-25T02:25:02;2.10;;;1.92;;
43952;SDS011;29608;49.400;11.010;2022-09-25T02:27:38;1.50;;;1.40;;
43952;SDS011;29608;49.400;11.010;2022-09-25T02:30:07;2.75;;;1.85;;
43952;SDS011;29608;49.400;11.010;2022-09-25T02:32:38;2.45;;;1.75;;
43952;SDS011;29608;49.400;11.010;2022-09-25T02:35:05;1.98;;;1.88;;
43952;SDS011;29608;49.400;11.010;2022-09-25T02:37:34;1.77;;;1.67;;
43952;SDS011;29608;49.400;11.010;2022-09-25T02:40:03;1.80;;;1.70;;
43952;SDS011;29608;49.400;11.010;2022-09-25T02:42:36;2.38;;;1.55;;
43952;SDS011;29608;49.400;11.010;2022-09-25T02:45:14;1.85;;;1.75;;
43952;SDS011;29608;49.400;11.010;2022-09-25T02:47:59;2.00;;;1.90;;
43952;SDS011;29608;49.400;11.010;2022-09-25T02:50:39;1.88;;;1.77;;
43952;SDS011;29608;49.400;11.010;2022-09-25T02:53:14;2.35;;;1.83;;
43952;SDS011;29608;49.400;11.010;2022-09-25T02:55:50;1.85;;;1.75;;
43952;SDS011;29608;49.400;11.010;2022-09-25T02:58:25;1.90;;;1.80;;
43952;SDS011;29608;49.400;11.010;2022-09-25T03:00:58;1.98;;;1.88;;
43952;SDS011;29608;49.400;11.010;2022-09-25T03:03:31;1.70;;;1.60;;
43952;SDS011;29608;49.400;11.010;2022-09-25T03:08:29;1.98;;;1.88;;
43952;SDS011;29608;49.400;11.010;2022-09-25T03:11:07;1.60;;;1.45;;
43952;SDS011;29608;49.400;11.010;2022-09-25T03:13:39;1.48;;;1.40;;
43952;SDS011;29608;49.400;11.010;2022-09-25T03:16:09;1.80;;;1.70;;
43952;SDS011;29608;49.400;11.010;2022-09-25T03:18:44;2.10;;;2.00;;
43952;SDS011;29608;49.400;11.010;2022-09-25T03:21:12;2.63;;;2.05;;
43952;SDS011;29608;49.400;11.010;2022-09-25T03:23:40;1.80;;;1.70;;
43952;SDS011;29608;49.400;11.010;2022-09-25T03:26:08;2.10;;;2.00;;
43952;SDS011;29608;49.400;11.010;2022-09-25T03:28:36;2.10;;;2.00;;
43952;SDS011;29608;49.400;11.010;2022-09-25T03:31:05;1.60;;;1.50;;
43952;SDS011;29608;49.400;11.010;2022-09-25T03:33:37;1.73;;;1.63;;
43952;SDS011;29608;49.400;11.010;2022-09-25T03:36:09;1.58;;;1.48;;
43952;SDS011;29608;49.400;11.010;2022-09-25T03:38:39;1.73;;;1.63;;
43952;SDS011;29608;49.400;11.010;2022-09-25T03:41:09;2.15;;;1.60;;
43952;SDS011;29608;49.400;11.010;2022-09-25T03:43:42;1.60;;;1.50;;
43952;SDS011;29608;49.400;11.010;2022-09-25T03:46:11;2.65;;;2.45;;
43952;SDS011;29608;49.400;11.010;2022-09-25T03:48:40;2.20;;;2.00;;
43952;SDS011;29608;49.400;11.010;2022-09-25T03:51:09;1.65;;;1.55;;
43952;SDS011;29608;49.400;11.010;2022-09-25T03:53:37;1.90;;;1.80;;
43952;SDS011;29608;49.400;11.010;2022-09-25T03:56:07;2.13;;;1.88;;
43952;SDS011;29608;49.400;11.010;2022-09-25T03:58:38;1.80;;;1.70;;
43952;SDS011;29608;49.400;11.010;2022-09-25T04:01:06;1.88;;;1.77;;
43952;SDS011;29608;49.400;11.010;2022-09-25T04:03:36;2.15;;;1.63;;
43952;SDS011;29608;49.400;11.010;2022-09-25T04:06:06;1.92;;;1.83;;
43952;SDS011;29608;49.400;11.010;2022-09-25T04:08:36;2.00;;;1.90;;
43952;SDS011;29608;49.400;11.010;2022-09-25T04:11:03;2.35;;;1.90;;
43952;SDS011;29608;49.400;11.010;2022-09-25T04:13:33;1.88;;;1.77;;
43952;SDS011;29608;49.400;11.010;2022-09-25T04:16:03;2.33;;;2.20;;
43952;SDS011;29608;49.400;11.010;2022-09-25T04:18:33;1.90;;;1.70;;
43952;SDS011;29608;49.400;11.010;2022-09-25T04:21:02;1.83;;;1.73;;
43952;SDS011;29608;49.400;11.010;2022-09-25T04:23:33;1.80;;;1.70;;
43952;SDS011;29608;49.400;11.010;2022-09-25T04:26:04;2.17;;;2.03;;
43952;SDS011;29608;49.400;11.010;2022-09-25T04:28:34;1.95;;;1.85;;
43952;SDS011;29608;49.400;11.010;2022-09-25T04:31:02;1.90;;;1.80;;
43952;SDS011;29608;49.400;11.010;2022-09-25T04:33:31;2.08;;;1.98;;
43952;SDS011;29608;49.400;11.010;2022-09-25T04:36:13;2.10;;;2.00;;
43952;SDS011;29608;49.400;11.010;2022-09-25T04:38:43;1.77;;;1.67;;
43952;SDS011;29608;49.400;11.010;2022-09-25T04:41:11;1.70;;;1.60;;
43952;SDS011;29608;49.400;11.010;2022-09-25T04:43:41;2.45;;;2.20;;
43952;SDS011;29608;49.400;11.010;2022-09-25T04:46:10;1.85;;;1.75;;
43952;SDS011;29608;49.400;11.010;2022-09-25T04:48:47;1.73;;;1.63;;
43952;SDS011;29608;49.400;11.010;2022-09-25T04:51:15;2.90;;;1.80;;
43952;SDS011;29608;49.400;11.010;2022-09-25T04:53:44;1.83;;;1.73;;
43952;SDS011;29608;49.400;11.010;2022-09-25T04:56:12;2.42;;;2.33;;
43952;SDS011;29608;49.400;11.010;2022-09-25T04:58:42;2.00;;;1.90;;
43952;SDS011;29608;49.400;11.010;2022-09-25T05:01:12;2.13;;;2.03;;
43952;SDS011;29608;49.400;11.010;2022-09-25T05:03:40;1.73;;;1.63;;
43952;SDS011;29608;49.400;11.010;2022-09-25T05:06:09;1.92;;;1.83;;
43952;SDS011;29608;49.400;11.010;2022-09-25T05:08:36;2.08;;;1.98;;
43952;SDS011;29608;49.400;11.010;2022-09-25T05:11:06;2.08;;;1.90;;
43952;SDS011;29608;49.400;11.010;2022-09-25T05:13:34;1.83;;;1.73;;
43952;SDS011;29608;49.400;11.010;2022-09-25T05:16:01;2.80;;;2.60;;
43952;SDS011;29608;49.400;11.010;2022-09-25T05:18:29;2.50;;;2.30;;
43952;SDS011;29608;49.400;11.010;2022-09-25T05:20:57;1.83;;;1.67;;
43952;SDS011;29608;49.400;11.010;2022-09-25T05:23:30;2.05;;;1.95;;
43952;SDS011;29608;49.400;11.010;2022-09-25T05:25:57;1.92;;;1.83;;
43952;SDS011;29608;49.400;11.010;2022-09-25T05:28:28;2.15;;;2.05;;
43952;SDS011;29608;49.400;11.010;2022-09-25T05:30:57;2.22;;;2.03;;
43952;SDS011;29608;49.400;11.010;2022-09-25T05:33:28;1.85;;;1.75;;
43952;SDS011;29608;49.400;11.010;2022-09-25T05:35:58;2.95;;;2.47;;
43952;SDS011;29608;49.400;11.010;2022-09-25T05:38:27;2.67;;;1.83;;
43952;SDS011;29608;49.400;11.010;2022-09-25T05:40:59;1.90;;;1.80;;
43952;SDS011;29608;49.400;11.010;2022-09-25T05:43:31;2.17;;;2.08;;
43952;SDS011;29608;49.400;11.010;2022-09-25T05:46:00;2.00;;;1.90;;
43952;SDS011;29608;49.400;11.010;2022-09-25T05:48:27;1.80;;;1.70;;
43952;SDS011;29608;49.400;11.010;2022-09-25T05:50:56;2.00;;;1.88;;
43952;SDS011;29608;49.400;11.010;2022-09-25T05:53:25;1.88;;;1.77;;
43952;SDS011;29608;49.400;11.010;2022-09-25T05:55:53;2.28;;;2.08;;
43952;SDS011;29608;49.400;11.010;2022-09-25T05:58:23;2.17;;;2.08;;
43952;SDS011;29608;49.400;11.010;2022-09-25T06:00:53;2.30;;;2.10;;
43952;SDS011;29608;49.400;11.010;2022-09-25T06:03:22;2.07;;;1.97;;
43952;SDS011;29608;49.400;11.010;2022-09-25T06:05:53;2.75;;;1.90;;
43952;SDS011;29608;49.400;11.010;2022-09-25T06:08:21;2.42;;;2.10;;
43952;SDS011;29608;49.400;11.010;2022-09-25T06:10:50;2.05;;;1.95;;
43952;SDS011;29608;49.400;11.010;2022-09-25T06:13:20;2.42;;;2.22;;
43952;SDS011;29608;49.400;11.010;2022-09-25T06:15:51;2.65;;;2.45;;
43952;SDS011;29608;49.400;11.010;2022-09-25T06:18:21;2.42;;;2.22;;
43952;SDS011;29608;49.400;11.010;2022-09-25T06:20:51;2.20;;;2.00;;
43952;SDS011;29608;49.400;11.010;2022-09-25T06:23:26;2.72;;;2.53;;
43952;SDS011;29608;49.400;11.010;2022-09-25T06:25:58;2.20;;;2.00;;
43952;SDS011;29608;49.400;11.010;2022-09-25T06:28:27;2.45;;;2.30;;
43952;SDS011;29608;49.400;11.010;2022-09-25T06:30:58;2.63;;;2.42;;
43952;SDS011;29608;49.400;11.010;2022-09-25T06:33:28;2.30;;;2.10;;
43952;SDS011;29608;49.400;11.010;2022-09-25T06:35:57;2.23;;;2.10;;
43952;SDS011;29608;49.400;11.010;2022-09-25T06:38:25;2.38;;;2.17;;
43952;SDS011;29608;49.400;11.010;2022-09-25T06:40:53;2.20;;;2.05;;
43952;SDS011;29608;49.400;11.010;2022-09-25T06:43:25;2.63;;;2.42;;
43952;SDS011;29608;49.400;11.010;2022-09-25T06:45:56;2.22;;;2.03;;
43952;SDS011;29608;49.400;11.010;2022-09-25T06:48:32;2.17;;;2.03;;
43952;SDS011;29608;49.400;11.010;2022-09-25T06:50:59;2.05;;;1.90;;
43952;SDS011;29608;49.400;11.010;2022-09-25T06:53:27;2.10;;;2.00;;
43952;SDS011;29608;49.400;11.010;2022-09-25T06:55:56;2.40;;;2.20;;
43952;SDS011;29608;49.400;11.010;2022-09-25T06:58:25;2.20;;;2.00;;
43952;SDS011;29608;49.400;11.010;2022-09-25T07:00:55;2.00;;;1.90;;
43952;SDS011;29608;49.400;11.010;2022-09-25T07:03:23;2.30;;;2.10;;
43952;SDS011;29608;49.400;11.010;2022-09-25T07:06:11;2.72;;;2.33;;
43952;SDS011;29608;49.400;11.010;2022-09-25T07:08:41;2.10;;;1.90;;
43952;SDS011;29608;49.400;11.010;2022-09-25T07:11:10;2.25;;;2.15;;
43952;SDS011;29608;49.400;11.010;2022-09-25T07:13:40;2.65;;;2.45;;
43952;SDS011;29608;49.400;11.010;2022-09-25T07:16:10;1.70;;;1.60;;
43952;SDS011;29608;49.400;11.010;2022-09-25T07:18:40;2.05;;;1.95;;
43952;SDS011;29608;49.400;11.010;2022-09-25T07:21:11;2.20;;;2.10;;
43952;SDS011;29608;49.400;11.010;2022-09-25T07:23:41;2.17;;;2.08;;
43952;SDS011;29608;49.400;11.010;2022-09-25T07:26:10;1.98;;;1.88;;
43952;SDS011;29608;49.400;11.010;2022-09-25T07:28:40;2.17;;;2.00;;
43952;SDS011;29608;49.400;11.010;2022-09-25T07:31:09;2.40;;;2.20;;
43952;SDS011;29608;49.400;11.010;2022-09-25T07:33:42;1.98;;;1.85;;
43952;SDS011;29608;49.400;11.010;2022-09-25T07:36:12;2.40;;;2.20;;
43952;SDS011;29608;49.400;11.010;2022-09-25T07:38:42;2.72;;;2.53;;
43952;SDS011;29608;49.400;11.010;2022-09-25T07:41:14;2.50;;;2.30;;
43952;SDS011;29608;49.400;11.010;2022-09-25T07:43:43;1.90;;;1.80;;
43952;SDS011;29608;49.400;11.010;2022-09-25T07:46:12;3.03;;;2.35;;
43952;SDS011;29608;49.400;11.010;2022-09-25T07:48:40;2.90;;;2.53;;
43952;SDS011;29608;49.400;11.010;2022-09-25T07:51:09;1.95;;;1.85;;
43952;SDS011;29608;49.400;11.010;2022-09-25T07:53:39;2.20;;;2.10;;
43952;SDS011;29608;49.400;11.010;2022-09-25T07:56:07;2.40;;;2.30;;
43952;SDS011;29608;49.400;11.010;2022-09-25T07:58:38;2.83;;;2.63;;
43952;SDS011;29608;49.400;11.010;2022-09-25T08:01:07;2.50;;;2.30;;
43952;SDS011;29608;49.400;11.010;2022-09-25T08:03:39;2.78;;;2.58;;
43952;SDS011;29608;49.400;11.010;2022-09-25T08:06:07;2.75;;;2.55;;
43952;SDS011;29608;49.400;11.010;2022-09-25T08:08:40;2.53;;;2.33;;
43952;SDS011;29608;49.400;11.010;2022-09-25T08:11:10;2.67;;;2.47;;
43952;SDS011;29608;49.400;11.010;2022-09-25T08:16:09;1.98;;;1.88;;
43952;SDS011;29608;49.400;11.010;2022-09-25T08:18:39;2.00;;;1.90;;
43952;SDS011;29608;49.400;11.010;2022-09-25T08:21:11;2.05;;;1.90;;
43952;SDS011;29608;49.400;11.010;2022-09-25T08:23:42;2.10;;;2.00;;
43952;SDS011;29608;49.400;11.010;2022-09-25T08:26:14;2.35;;;2.22;;
43952;SDS011;29608;49.400;11.010;2022-09-25T08:28:43;1.90;;;1.80;;
43952;SDS011;29608;49.400;11.010;2022-09-25T08:31:11;2.25;;;2.08;;
43952;SDS011;29608;49.400;11.010;2022-09-25T08:33:42;2.25;;;2.00;;
43952;SDS011;29608;49.400;11.010;2022-09-25T08:36:11;2.78;;;2.58;;
43952;SDS011;29608;49.400;11.010;2022-09-25T08:38:44;2.35;;;2.25;;
43952;SDS011;29608;49.400;11.010;2022-09-25T08:41:13;2.10;;;2.00;;
43952;SDS011;29608;49.400;11.010;2022-09-25T08:43:51;2.30;;;2.15;;
43952;SDS011;29608;49.400;11.010;2022-09-25T08:46:30;2.42;;;2.22;;
43952;SDS011;29608;49.400;11.010;2022-09-25T08:49:24;2.10;;;2.00;;
43952;SDS011;29608;49.400;11.010;2022-09-25T08:51:57;2.55;;;2.35;;
43952;SDS011;29608;49.400;11.010;2022-09-25T08:54:30;2.30;;;2.20;;
43952;SDS011;29608;49.400;11.010;2022-09-25T08:57:03;2.13;;;2.03;;
43952;SDS011;29608;49.400;11.010;2022-09-25T08:59:42;2.08;;;1.90;;
43952;SDS011;29608;49.400;11.010;2022-09-25T09:02:15;1.90;;;1.80;;
43952;SDS011;29608;49.400;11.010;2022-09-25T09:04:47;2.30;;;2.10;;
43952;SDS011;29608;49.400;11.010;2022-09-25T09:07:24;2.22;;;2.13;;
43952;SDS011;29608;49.400;11.010;2022-09-25T09:10:01;2.35;;;2.25;;
43952;SDS011;29608;49.400;11.010;2022-09-25T09:12:38;2.40;;;2.20;;
43952;SDS011;29608;49.400;11.010;2022-09-25T09:15:15;1.88;;;1.77;;
43952;SDS011;29608;49.400;11.010;2022-09-25T09:17:53;2.40;;;2.25;;
43952;SDS011;29608;49.400;11.010;2022-09-25T09:20:23;2.00;;;1.90;;
43952;SDS011;29608;49.400;11.010;2022-09-25T09:22:59;2.03;;;1.90;;
43952;SDS011;29608;49.400;11.010;2022-09-25T09:25:31;2.60;;;2.40;;
43952;SDS011;29608;49.400;11.010;2022-09-25T09:28:16;2.17;;;2.08;;
43952;SDS011;29608;49.400;11.010;2022-09-25T09:31:07;2.53;;;2.33;;
43952;SDS011;29608;49.400;11.010;2022-09-25T09:36:26;2.55;;;2.33;;
43952;SDS011;29608;49.400;11.010;2022-09-25T09:39:07;2.42;;;2.33;;
43952;SDS011;29608;49.400;11.010;2022-09-25T09:41:50;2.10;;;2.00;;
43952;SDS011;29608;49.400;11.010;2022-09-25T09:44:43;2.08;;;1.98;;
43952;SDS011;29608;49.400;11.010;2022-09-25T09:47:29;2.35;;;2.15;;
43952;SDS011;29608;49.400;11.010;2022-09-25T09:50:18;2.38;;;2.20;;
43952;SDS011;29608;49.400;11.010;2022-09-25T09:52:54;1.75;;;1.65;;
43952;SDS011;29608;49.400;11.010;2022-09-25T09:55:29;1.95;;;1.85;;
43952;SDS011;29608;49.400;11.010;2022-09-25T09:58:09;1.98;;;1.88;;
43952;SDS011;29608;49.400;11.010;2022-09-25T10:00:46;2.08;;;1.98;;
43952;SDS011;29608;49.400;11.010;2022-09-25T10:03:16;2.20;;;2.00;;
43952;SDS011;29608;49.400;11.010;2022-09-25T10:05:49;2.00;;;1.90;;
43952;SDS011;29608;49.400;11.010;2022-09-25T10:08:23;2.05;;;1.88;;
43952;SDS011;29608;49.400;11.010;2022-09-25T10:10:52;2.13;;;1.98;;
43952;SDS011;29608;49.400;11.010;2022-09-25T10:13:23;1.90;;;1.80;;
43952;SDS011;29608;49.400;11.010;2022-09-25T10:15:56;2.03;;;1.92;;
43952;SDS011;29608;49.400;11.010;2022-09-25T10:18:30;1.98;;;1.88;;
43952;SDS011;29608;49.400;11.010;2022-09-25T10:21:08;2.83;;;2.33;;
43952;SDS011;29608;49.400;11.010;2022-09-25T10:23:41;3.30;;;3.00;;
43952;SDS011;29608;49.400;11.010;2022-09-25T10:26:21;6.38;;;4.32;;
43952;SDS011;29608;49.400;11.010;2022-09-25T10:28:53;4.40;;;4.00;;
43952;SDS011;29608;49.400;11.010;2022-09-25T10:33:57;6.82;;;4.97;;
43952;SDS011;29608;49.400;11.010;2022-09-25T10:36:29;7.68;;;5.97;;
43952;SDS011;29608;49.400;11.010;2022-09-25T10:39:01;8.77;;;5.70;;
43952;SDS011;29608;49.400;11.010;2022-09-25T10:41:51;7.82;;;5.95;;
43952;SDS011;29608;49.400;11.010;2022-09-25T10:44:21;10.20;;;6.22;;
43952;SDS011;29608;49.400;11.010;2022-09-25T10:46:57;9.32;;;6.47;;
43952;SDS011;29608;49.400;11.010;2022-09-25T10:50:20;7.30;;;5.82;;
43952;SDS011;29608;49.400;11.010;2022-09-25T10:55:22;8.57;;;5.43;;
43952;SDS011;29608;49.400;11.010;2022-09-25T10:57:56;11.32;;;7.38;;
43952;SDS011;29608;49.400;11.010;2022-09-25T11:00:39;11.65;;;8.23;;
43952;SDS011;29608;49.400;11.010;2022-09-25T11:03:20;17.05;;;10.80;;
43952;SDS011;29608;49.400;11.010;2022-09-25T11:05:53;19.88;;;12.55;;
43952;SDS011;29608;49.400;11.010;2022-09-25T11:10:55;22.77;;;12.52;;
43952;SDS011;29608;49.400;11.010;2022-09-25T11:13:26;28.23;;;16.00;;
43952;SDS011;29608;49.400;11.010;2022-09-25T11:16:04;32.08;;;18.60;;
43952;SDS011;29608;49.400;11.010;2022-09-25T11:18:36;36.72;;;18.00;;
43952;SDS011;29608;49.400;11.010;2022-09-25T11:21:16;26.25;;;15.98;;
43952;SDS011;29608;49.400;11.010;2022-09-25T11:23:54;29.63;;;16.08;;
43952;SDS011;29608;49.400;11.010;2022-09-25T11:26:32;25.63;;;16.10;;
43952;SDS011;29608;49.400;11.010;2022-09-25T11:29:08;27.45;;;18.25;;
43952;SDS011;29608;49.400;11.010;2022-09-25T11:31:48;31.73;;;17.73;;
43952;SDS011;29608;49.400;11.010;2022-09-25T11:34:33;31.27;;;19.03;;
43952;SDS011;29608;49.400;11.010;2022-09-25T11:37:22;31.70;;;17.73;;
43952;SDS011;29608;49.400;11.010;2022-09-25T11:40:04;29.98;;;18.35;;
43952;SDS011;29608;49.400;11.010;2022-09-25T11:43:19;28.45;;;17.35;;
43952;SDS011;29608;49.400;11.010;2022-09-25T11:46:03;30.23;;;18.27;;
43952;SDS011;29608;49.400;11.010;2022-09-25T11:48:49;37.67;;;19.27;;
43952;SDS011;29608;49.400;11.010;2022-09-25T11:51:39;32.10;;;18.65;;
43952;SDS011;29608;49.400;11.010;2022-09-25T11:54:49;35.17;;;17.85;;
43952;SDS011;29608;49.400;11.010;2022-09-25T11:57:39;29.35;;;18.63;;
43952;SDS011;29608;49.400;11.010;2022-09-25T12:00:21;33.30;;;19.00;;
43952;SDS011;29608;49.400;11.010;2022-09-25T12:03:00;38.85;;;20.95;;
43952;SDS011;29608;49.400;11.010;2022-09-25T12:06:00;34.63;;;19.65;;
43952;SDS011;29608;49.400;11.010;2022-09-25T12:08:57;30.23;;;19.50;;
43952;SDS011;29608;49.400;11.010;2022-09-25T12:14:19;25.38;;;16.30;;
43952;SDS011;29608;49.400;11.010;2022-09-25T12:16:58;31.05;;;18.27;;
43952;SDS011;29608;49.400;11.010;2022-09-25T12:19:39;34.72;;;19.40;;
43952;SDS011;29608;49.400;11.010;2022-09-25T12:22:19;35.90;;;19.50;;
43952;SDS011;29608;49.400;11.010;2022-09-25T12:24:58;31.15;;;18.35;;
43952;SDS011;29608;49.400;11.010;2022-09-25T12:27:41;30.95;;;18.45;;
43952;SDS011;29608;49.400;11.010;2022-09-25T12:30:20;32.92;;;19.92;;
43952;SDS011;29608;49.400;11.010;2022-09-25T12:32:54;35.28;;;19.67;;
43952;SDS011;29608;49.400;11.010;2022-09-25T12:35:34;30.25;;;18.95;;
43952;SDS011;29608;49.400;11.010;2022-09-25T12:38:17;34.58;;;19.10;;
43952;SDS011;29608;49.400;11.010;2022-09-25T12:40:57;27.98;;;17.48;;
43952;SDS011;29608;49.400;11.010;2022-09-25T12:43:37;31.65;;;19.40;;
43952;SDS011;29608;49.400;11.010;2022-09-25T12:46:16;32.50;;;19.55;;
43952;SDS011;29608;49.400;11.010;2022-09-25T12:48:54;33.15;;;19.10;;
43952;SDS011;29608;49.400;11.010;2022-09-25T12:51:28;30.58;;;20.15;;
43952;SDS011;29608;49.400;11.010;2022-09-25T12:54:13;33.65;;;19.40;;
43952;SDS011;29608;49.400;11.010;2022-09-25T12:56:51;33.88;;;20.20;;
43952;SDS011;29608;49.400;11.010;2022-09-25T12:59:26;27.58;;;17.60;;
43952;SDS011;29608;49.400;11.010;2022-09-25T13:02:03;31.00;;;17.95;;
43952;SDS011;29608;49.400;11.010;2022-09-25T13:04:48;31.35;;;18.77;;
43952;SDS011;29608;49.400;11.010;2022-09-25T13:07:28;29.90;;;18.10;;
43952;SDS011;29608;49.400;11.010;2022-09-25T13:10:08;29.23;;;18.92;;
43952;SDS011;29608;49.400;11.010;2022-09-25T13:12:53;28.63;;;17.50;;
43952;SDS011;29608;49.400;11.010;2022-09-25T13:15:27;31.65;;;18.20;;
43952;SDS011;29608;49.400;11.010;2022-09-25T13:18:01;29.48;;;17.85;;
43952;SDS011;29608;49.400;11.010;2022-09-25T13:23:25;30.02;;;17.40;;
43952;SDS011;29608;49.400;11.010;2022-09-25T13:25:58;32.72;;;17.50;;
43952;SDS011;29608;49.400;11.010;2022-09-25T13:28:36;28.00;;;17.95;;
43952;SDS011;29608;49.400;11.010;2022-09-25T13:31:08;25.67;;;17.10;;
43952;SDS011;29608;49.400;11.010;2022-09-25T13:33:43;26.45;;;15.82;;
43952;SDS011;29608;49.400;11.010;2022-09-25T13:36:30;27.42;;;17.02;;
43952;SDS011;29608;49.400;11.010;2022-09-25T13:39:04;28.88;;;16.40;;
43952;SDS011;29608;49.400;11.010;2022-09-25T13:42:03;22.83;;;15.63;;
43952;SDS011;29608;49.400;11.010;2022-09-25T13:44:44;29.25;;;17.02;;
43952;SDS011;29608;49.400;11.010;2022-09-25T13:47:42;31.10;;;17.45;;
43952;SDS011;29608;49.400;11.010;2022-09-25T13:50:27;21.85;;;14.38;;
43952;SDS011;29608;49.400;11.010;2022-09-25T13:53:11;22.55;;;15.20;;
43952;SDS011;29608;49.400;11.010;2022-09-25T13:56:05;23.05;;;16.50;;
43952;SDS011;29608;49.400;11.010;2022-09-25T13:58:58;23.88;;;14.05;;
43952;SDS011;29608;49.400;11.010;2022-09-25T14:01:46;22.00;;;14.30;;
43952;SDS011;29608;49.400;11.010;2022-09-25T14:04:27;25.10;;;14.88;;
43952;SDS011;29608;49.400;11.010;2022-09-25T14:07:04;28.38;;;14.98;;
43952;SDS011;29608;49.400;11.010;2022-09-25T14:09:41;23.60;;;13.85;;
43952;SDS011;29608;49.400;11.010;2022-09-25T14:12:20;21.17;;;13.73;;
43952;SDS011;29608;49.400;11.010;2022-09-25T14:14:57;22.70;;;15.18;;
43952;SDS011;29608;49.400;11.010;2022-09-25T14:17:31;27.60;;;15.20;;
43952;SDS011;29608;49.400;11.010;2022-09-25T14:20:03;27.23;;;16.00;;
43952;SDS011;29608;49.400;11.010;2022-09-25T14:22:47;25.45;;;15.80;;
43952;SDS011;29608;49.400;11.010;2022-09-25T14:25:25;24.52;;;14.65;;
43952;SDS011;29608;49.400;11.010;2022-09-25T14:27:59;26.25;;;15.27;;
43952;SDS011;29608;49.400;11.010;2022-09-25T14:30:30;22.85;;;13.55;;
43952;SDS011;29608;49.400;11.010;2022-09-25T14:33:04;19.92;;;14.40;;
43952;SDS011;29608;49.400;11.010;2022-09-25T14:35:52;27.77;;;14.38;;
43952;SDS011;29608;49.400;11.010;2022-09-25T14:38:37;21.85;;;13.95;;
43952;SDS011;29608;49.400;11.010;2022-09-25T14:41:25;21.42;;;13.75;;
43952;SDS011;29608;49.400;11.010;2022-09-25T14:44:14;22.90;;;13.00;;
43952;SDS011;29608;49.400;11.010;2022-09-25T14:47:05;29.98;;;14.25;;
43952;SDS011;29608;49.400;11.010;2022-09-25T14:49:38;23.45;;;13.73;;
43952;SDS011;29608;49.400;11.010;2022-09-25T14:52:12;21.90;;;14.05;;
43952;SDS011;29608;49.400;11.010;2022-09-25T14:54:46;22.00;;;13.80;;
43952;SDS011;29608;49.400;11.010;2022-09-25T14:57:17;23.90;;;14.18;;
43952;SDS011;29608;49.400;11.010;2022-09-25T14:59:52;27.95;;;14.23;;
43952;SDS011;29608;49.400;11.010;2022-09-25T15:02:26;24.70;;;13.65;;
43952;SDS011;29608;49.400;11.010;2022-09-25T15:05:14;19.77;;;12.82;;
43952;SDS011;29608;49.400;11.010;2022-09-25T15:07:45;25.52;;;13.90;;
43952;SDS011;29608;49.400;11.010;2022-09-25T15:10:19;23.88;;;15.43;;
43952;SDS011;29608;49.400;11.010;2022-09-25T15:15:32;20.08;;;11.85;;
43952;SDS011;29608;49.400;11.010;2022-09-25T15:18:02;16.48;;;11.30;;
43952;SDS011;29608;49.400;11.010;2022-09-25T15:20:30;16.95;;;12.23;;
43952;SDS011;29608;49.400;11.010;2022-09-25T15:23:00;22.05;;;11.82;;
43952;SDS011;29608;49.400;11.010;2022-09-25T15:25:40;17.55;;;12.73;;
43952;SDS011;29608;49.400;11.010;2022-09-25T15:28:12;19.70;;;12.93;;
43952;SDS011;29608;49.400;11.010;2022-09-25T15:30:44;19.25;;;12.88;;
43952;SDS011;29608;49.400;11.010;2022-09-25T15:33:23;18.80;;;11.80;;
43952;SDS011;29608;49.400;11.010;2022-09-25T15:35:54;19.88;;;11.93;;